sensor_id;sensor_type;location;lat;lon;timestamp;temperature;humidity
19039;DHT22;9652;49.014;12.052;2023-06-14T00:00:48;19.40;42.20
19039;DHT22;9652;49.014;12.052;2023-06-14T00:03:15;19.30;42.30
19039;DHT22;9652;49.014;12.052;2023-06-14T00:05:44;19.30;42.50
19039;DHT22;9652;49.014;12.052;2023-06-14T00:08:12;19.20;42.60
19039;DHT22;9652;49.014;12.052;2023-06-14T00:10:39;19.20;42.70
19039;DHT22;9652;49.014;12.052;2023-06-14T00:13:07;19.10;42.70
19039;DHT22;9652;49.014;12.052;2023-06-14T00:15:35;19.10;42.80
19039;DHT22;9652;49.014;12.052;2023-06-14T00:18:02;19.00;43.00
19039;DHT22;9652;49.014;12.052;2023-06-14T00:20:32;18.90;43.10
19039;DHT22;9652;49.014;12.052;2023-06-14T00:23:01;18.80;43.30
19039;DHT22;9652;49.014;12.052;2023-06-14T00:25:28;18.80;43.50
19039;DHT22;9652;49.014;12.052;2023-06-14T00:27:56;18.80;43.50
19039;DHT22;9652;49.014;12.052;2023-06-14T00:30:24;18.70;43.70
19039;DHT22;9652;49.014;12.052;2023-06-14T00:32:56;18.70;43.80
19039;DHT22;9652;49.014;12.052;2023-06-14T00:35:25;18.60;43.80
19039;DHT22;9652;49.014;12.052;2023-06-14T00:37:52;18.50;44.00
19039;DHT22;9652;49.014;12.052;2023-06-14T00:40:21;18.50;44.20
19039;DHT22;9652;49.014;12.052;2023-06-14T00:42:49;18.40;44.40
19039;DHT22;9652;49.014;12.052;2023-06-14T00:45:16;18.40;44.60
19039;DHT22;9652;49.014;12.052;2023-06-14T00:47:43;18.40;45.40
19039;DHT22;9652;49.014;12.052;2023-06-14T00:50:13;18.30;44.90
19039;DHT22;9652;49.014;12.052;2023-06-14T00:52:40;18.30;45.00
19039;DHT22;9652;49.014;12.052;2023-06-14T00:55:08;18.30;45.10
19039;DHT22;9652;49.014;12.052;2023-06-14T00:57:37;18.30;45.20
19039;DHT22;9652;49.014;12.052;2023-06-14T01:00:06;18.20;45.30
19039;DHT22;9652;49.014;12.052;2023-06-14T01:02:35;18.20;45.30
19039;DHT22;9652;49.014;12.052;2023-06-14T01:05:03;18.10;45.40
19039;DHT22;9652;49.014;12.052;2023-06-14T01:07:40;18.20;45.50
19039;DHT22;9652;49.014;12.052;2023-06-14T01:10:26;18.10;46.00
19039;DHT22;9652;49.014;12.052;2023-06-14T01:13:05;18.10;46.00
19039;DHT22;9652;49.014;12.052;2023-06-14T01:15:37;18.00;46.00
19039;DHT22;9652;49.014;12.052;2023-06-14T01:18:05;18.00;45.70
19039;DHT22;9652;49.014;12.052;2023-06-14T01:20:33;17.90;45.90
19039;DHT22;9652;49.014;12.052;2023-06-14T01:23:04;17.90;46.00
19039;DHT22;9652;49.014;12.052;2023-06-14T01:25:32;17.80;46.10
19039;DHT22;9652;49.014;12.052;2023-06-14T01:28:04;17.80;46.20
19039;DHT22;9652;49.014;12.052;2023-06-14T01:30:37;17.80;46.50
19039;DHT22;9652;49.014;12.052;2023-06-14T01:33:10;17.70;46.40
19039;DHT22;9652;49.014;12.052;2023-06-14T01:35:39;17.70;46.60
19039;DHT22;9652;49.014;12.052;2023-06-14T01:38:08;17.60;46.70
19039;DHT22;9652;49.014;12.052;2023-06-14T01:40:36;17.60;47.00
19039;DHT22;9652;49.014;12.052;2023-06-14T01:43:05;17.50;47.00
19039;DHT22;9652;49.014;12.052;2023-06-14T01:45:34;17.50;47.10
19039;DHT22;9652;49.014;12.052;2023-06-14T01:48:04;17.40;47.30
19039;DHT22;9652;49.014;12.052;2023-06-14T01:50:31;17.40;47.30
19039;DHT22;9652;49.014;12.052;2023-06-14T01:52:58;17.40;47.50
19039;DHT22;9652;49.014;12.052;2023-06-14T01:55:27;17.30;47.50
19039;DHT22;9652;49.014;12.052;2023-06-14T01:57:54;17.30;47.80
19039;DHT22;9652;49.014;12.052;2023-06-14T02:00:21;17.30;47.80
19039;DHT22;9652;49.014;12.052;2023-06-14T02:02:51;17.20;47.90
19039;DHT22;9652;49.014;12.052;2023-06-14T02:05:18;17.20;48.10
19039;DHT22;9652;49.014;12.052;2023-06-14T02:07:47;17.10;48.70
19039;DHT22;9652;49.014;12.052;2023-06-14T02:10:17;17.20;48.20
19039;DHT22;9652;49.014;12.052;2023-06-14T02:12:47;17.10;48.30
19039;DHT22;9652;49.014;12.052;2023-06-14T02:15:15;17.10;48.50
19039;DHT22;9652;49.014;12.052;2023-06-14T02:17:44;17.00;48.40
19039;DHT22;9652;49.014;12.052;2023-06-14T02:20:12;17.00;48.50
19039;DHT22;9652;49.014;12.052;2023-06-14T02:22:40;17.00;48.50
19039;DHT22;9652;49.014;12.052;2023-06-14T02:25:08;17.00;48.70
19039;DHT22;9652;49.014;12.052;2023-06-14T02:27:35;16.90;48.70
19039;DHT22;9652;49.014;12.052;2023-06-14T02:30:05;16.90;48.80
19039;DHT22;9652;49.014;12.052;2023-06-14T02:32:33;16.90;49.00
19039;DHT22;9652;49.014;12.052;2023-06-14T02:35:01;16.80;48.90
19039;DHT22;9652;49.014;12.052;2023-06-14T02:37:28;16.80;49.00
19039;DHT22;9652;49.014;12.052;2023-06-14T02:39:55;16.80;49.00
19039;DHT22;9652;49.014;12.052;2023-06-14T02:42:23;16.70;49.20
19039;DHT22;9652;49.014;12.052;2023-06-14T02:44:50;16.70;49.20
19039;DHT22;9652;49.014;12.052;2023-06-14T02:47:19;16.70;49.30
19039;DHT22;9652;49.014;12.052;2023-06-14T02:49:46;16.70;49.40
19039;DHT22;9652;49.014;12.052;2023-06-14T02:52:14;16.60;49.30
19039;DHT22;9652;49.014;12.052;2023-06-14T02:54:41;16.60;49.50
19039;DHT22;9652;49.014;12.052;2023-06-14T02:57:09;16.60;49.50
19039;DHT22;9652;49.014;12.052;2023-06-14T02:59:37;16.60;49.60
19039;DHT22;9652;49.014;12.052;2023-06-14T03:02:05;16.60;49.60
19039;DHT22;9652;49.014;12.052;2023-06-14T03:04:35;16.50;49.70
19039;DHT22;9652;49.014;12.052;2023-06-14T03:07:08;16.50;49.90
19039;DHT22;9652;49.014;12.052;2023-06-14T03:09:38;16.50;49.90
19039;DHT22;9652;49.014;12.052;2023-06-14T03:12:08;16.40;50.00
19039;DHT22;9652;49.014;12.052;2023-06-14T03:14:37;16.40;50.00
19039;DHT22;9652;49.014;12.052;2023-06-14T03:17:05;16.40;50.00
19039;DHT22;9652;49.014;12.052;2023-06-14T03:19:36;16.40;50.10
19039;DHT22;9652;49.014;12.052;2023-06-14T03:22:04;16.40;50.30
19039;DHT22;9652;49.014;12.052;2023-06-14T03:24:33;16.30;50.30
19039;DHT22;9652;49.014;12.052;2023-06-14T03:27:02;16.40;50.40
19039;DHT22;9652;49.014;12.052;2023-06-14T03:29:30;16.30;50.50
19039;DHT22;9652;49.014;12.052;2023-06-14T03:31:59;16.30;50.60
19039;DHT22;9652;49.014;12.052;2023-06-14T03:34:35;16.30;50.70
19039;DHT22;9652;49.014;12.052;2023-06-14T03:37:04;16.30;51.50
19039;DHT22;9652;49.014;12.052;2023-06-14T03:39:31;16.30;50.90
19039;DHT22;9652;49.014;12.052;2023-06-14T03:42:00;16.30;51.00
19039;DHT22;9652;49.014;12.052;2023-06-14T03:44:27;16.30;51.10
19039;DHT22;9652;49.014;12.052;2023-06-14T03:46:55;16.30;51.30
19039;DHT22;9652;49.014;12.052;2023-06-14T03:49:23;16.30;51.40
19039;DHT22;9652;49.014;12.052;2023-06-14T03:51:51;16.30;51.60
19039;DHT22;9652;49.014;12.052;2023-06-14T03:54:22;16.30;51.70
19039;DHT22;9652;49.014;12.052;2023-06-14T03:56:51;16.30;51.70
19039;DHT22;9652;49.014;12.052;2023-06-14T03:59:18;16.40;51.90
19039;DHT22;9652;49.014;12.052;2023-06-14T04:01:45;16.40;51.90
19039;DHT22;9652;49.014;12.052;2023-06-14T04:04:14;16.40;52.00
19039;DHT22;9652;49.014;12.052;2023-06-14T04:06:43;16.50;52.00
19039;DHT22;9652;49.014;12.052;2023-06-14T04:09:15;16.50;52.10
19039;DHT22;9652;49.014;12.052;2023-06-14T04:11:42;16.60;52.30
19039;DHT22;9652;49.014;12.052;2023-06-14T04:14:09;16.70;52.30
19039;DHT22;9652;49.014;12.052;2023-06-14T04:16:37;16.80;52.30
19039;DHT22;9652;49.014;12.052;2023-06-14T04:19:05;16.80;52.30
19039;DHT22;9652;49.014;12.052;2023-06-14T04:21:31;16.90;52.30
19039;DHT22;9652;49.014;12.052;2023-06-14T04:24:02;17.00;52.20
19039;DHT22;9652;49.014;12.052;2023-06-14T04:26:33;17.10;52.10
19039;DHT22;9652;49.014;12.052;2023-06-14T04:29:02;17.10;52.10
19039;DHT22;9652;49.014;12.052;2023-06-14T04:31:31;17.20;51.90
19039;DHT22;9652;49.014;12.052;2023-06-14T04:34:00;17.30;51.80
19039;DHT22;9652;49.014;12.052;2023-06-14T04:36:31;17.30;51.80
19039;DHT22;9652;49.014;12.052;2023-06-14T04:39:00;17.30;51.80
19039;DHT22;9652;49.014;12.052;2023-06-14T04:41:30;17.40;51.80
19039;DHT22;9652;49.014;12.052;2023-06-14T04:44:01;17.40;51.80
19039;DHT22;9652;49.014;12.052;2023-06-14T04:46:30;17.40;52.00
19039;DHT22;9652;49.014;12.052;2023-06-14T04:48:58;17.40;52.40
19039;DHT22;9652;49.014;12.052;2023-06-14T04:51:28;17.50;51.70
19039;DHT22;9652;49.014;12.052;2023-06-14T04:53:57;17.50;51.70
19039;DHT22;9652;49.014;12.052;2023-06-14T04:56:26;17.50;51.80
19039;DHT22;9652;49.014;12.052;2023-06-14T04:58:55;17.60;51.80
19039;DHT22;9652;49.014;12.052;2023-06-14T05:01:24;17.60;51.60
19039;DHT22;9652;49.014;12.052;2023-06-14T05:03:51;17.70;51.60
19039;DHT22;9652;49.014;12.052;2023-06-14T05:06:18;17.70;51.40
19039;DHT22;9652;49.014;12.052;2023-06-14T05:08:46;17.80;51.30
19039;DHT22;9652;49.014;12.052;2023-06-14T05:11:13;17.90;51.30
19039;DHT22;9652;49.014;12.052;2023-06-14T05:13:41;17.90;51.30
19039;DHT22;9652;49.014;12.052;2023-06-14T05:16:10;18.00;51.20
19039;DHT22;9652;49.014;12.052;2023-06-14T05:18:39;18.10;51.10
19039;DHT22;9652;49.014;12.052;2023-06-14T05:21:06;18.20;51.00
19039;DHT22;9652;49.014;12.052;2023-06-14T05:23:34;18.30;50.90
19039;DHT22;9652;49.014;12.052;2023-06-14T05:26:01;18.40;50.90
19039;DHT22;9652;49.014;12.052;2023-06-14T05:28:30;18.40;50.60
19039;DHT22;9652;49.014;12.052;2023-06-14T05:30:57;18.50;50.60
19039;DHT22;9652;49.014;12.052;2023-06-14T05:33:24;18.50;50.50
19039;DHT22;9652;49.014;12.052;2023-06-14T05:35:53;18.60;50.50
19039;DHT22;9652;49.014;12.052;2023-06-14T05:38:20;18.60;50.40
19039;DHT22;9652;49.014;12.052;2023-06-14T05:40:47;18.70;50.30
19039;DHT22;9652;49.014;12.052;2023-06-14T05:43:14;18.70;50.20
19039;DHT22;9652;49.014;12.052;2023-06-14T05:45:42;18.80;50.20
19039;DHT22;9652;49.014;12.052;2023-06-14T05:48:09;18.90;50.30
19039;DHT22;9652;49.014;12.052;2023-06-14T05:50:36;18.90;50.20
19039;DHT22;9652;49.014;12.052;2023-06-14T05:53:04;19.00;50.10
19039;DHT22;9652;49.014;12.052;2023-06-14T05:55:31;19.00;50.00
19039;DHT22;9652;49.014;12.052;2023-06-14T05:57:58;19.10;49.90
19039;DHT22;9652;49.014;12.052;2023-06-14T06:00:26;19.20;49.90
19039;DHT22;9652;49.014;12.052;2023-06-14T06:02:53;19.30;49.90
19039;DHT22;9652;49.014;12.052;2023-06-14T06:05:22;19.30;49.90
19039;DHT22;9652;49.014;12.052;2023-06-14T06:07:49;19.40;49.80
19039;DHT22;9652;49.014;12.052;2023-06-14T06:10:18;19.50;49.90
19039;DHT22;9652;49.014;12.052;2023-06-14T06:12:45;19.50;49.80
19039;DHT22;9652;49.014;12.052;2023-06-14T06:15:13;19.60;49.80
19039;DHT22;9652;49.014;12.052;2023-06-14T06:17:39;19.60;49.70
19039;DHT22;9652;49.014;12.052;2023-06-14T06:20:07;19.80;49.70
19039;DHT22;9652;49.014;12.052;2023-06-14T06:22:35;19.90;49.60
19039;DHT22;9652;49.014;12.052;2023-06-14T06:25:02;20.00;49.60
19039;DHT22;9652;49.014;12.052;2023-06-14T06:27:31;20.10;49.40
19039;DHT22;9652;49.014;12.052;2023-06-14T06:29:58;20.20;49.30
19039;DHT22;9652;49.014;12.052;2023-06-14T06:32:25;20.20;49.10
19039;DHT22;9652;49.014;12.052;2023-06-14T06:34:52;20.40;49.10
19039;DHT22;9652;49.014;12.052;2023-06-14T06:37:20;20.50;49.00
19039;DHT22;9652;49.014;12.052;2023-06-14T06:39:47;20.60;48.90
19039;DHT22;9652;49.014;12.052;2023-06-14T06:42:14;20.70;48.80
19039;DHT22;9652;49.014;12.052;2023-06-14T06:44:43;20.90;48.80
19039;DHT22;9652;49.014;12.052;2023-06-14T06:47:12;20.90;48.50
19039;DHT22;9652;49.014;12.052;2023-06-14T06:49:39;21.00;48.50
19039;DHT22;9652;49.014;12.052;2023-06-14T06:52:07;21.10;48.30
19039;DHT22;9652;49.014;12.052;2023-06-14T06:54:34;21.20;48.20
19039;DHT22;9652;49.014;12.052;2023-06-14T06:57:01;21.30;48.00
19039;DHT22;9652;49.014;12.052;2023-06-14T06:59:28;21.30;47.90
19039;DHT22;9652;49.014;12.052;2023-06-14T07:01:57;21.50;47.90
19039;DHT22;9652;49.014;12.052;2023-06-14T07:04:24;21.60;47.80
19039;DHT22;9652;49.014;12.052;2023-06-14T07:06:51;21.60;47.80
19039;DHT22;9652;49.014;12.052;2023-06-14T07:09:18;21.80;47.80
19039;DHT22;9652;49.014;12.052;2023-06-14T07:11:47;21.90;47.60
19039;DHT22;9652;49.014;12.052;2023-06-14T07:14:14;22.00;47.40
19039;DHT22;9652;49.014;12.052;2023-06-14T07:16:41;22.20;47.20
19039;DHT22;9652;49.014;12.052;2023-06-14T07:19:10;22.30;47.10
19039;DHT22;9652;49.014;12.052;2023-06-14T07:21:37;22.40;46.90
19039;DHT22;9652;49.014;12.052;2023-06-14T07:24:05;22.40;46.70
19039;DHT22;9652;49.014;12.052;2023-06-14T07:26:33;22.50;46.60
19039;DHT22;9652;49.014;12.052;2023-06-14T07:29:00;22.60;46.60
19039;DHT22;9652;49.014;12.052;2023-06-14T07:31:27;22.70;46.50
19039;DHT22;9652;49.014;12.052;2023-06-14T07:33:54;22.90;46.50
19039;DHT22;9652;49.014;12.052;2023-06-14T07:36:23;23.00;46.40
19039;DHT22;9652;49.014;12.052;2023-06-14T07:38:50;23.20;46.20
19039;DHT22;9652;49.014;12.052;2023-06-14T07:41:17;23.40;45.90
19039;DHT22;9652;49.014;12.052;2023-06-14T07:43:44;23.50;45.60
19039;DHT22;9652;49.014;12.052;2023-06-14T07:46:11;23.60;45.20
19039;DHT22;9652;49.014;12.052;2023-06-14T07:48:38;23.70;44.70
19039;DHT22;9652;49.014;12.052;2023-06-14T07:51:05;23.80;44.20
19039;DHT22;9652;49.014;12.052;2023-06-14T07:53:34;23.90;43.70
19039;DHT22;9652;49.014;12.052;2023-06-14T07:56:01;23.90;43.40
19039;DHT22;9652;49.014;12.052;2023-06-14T07:58:28;23.90;43.40
19039;DHT22;9652;49.014;12.052;2023-06-14T08:00:55;23.90;43.20
19039;DHT22;9652;49.014;12.052;2023-06-14T08:03:22;23.90;43.00
19039;DHT22;9652;49.014;12.052;2023-06-14T08:05:49;23.90;43.00
19039;DHT22;9652;49.014;12.052;2023-06-14T08:08:16;23.90;43.00
19039;DHT22;9652;49.014;12.052;2023-06-14T08:10:45;23.90;42.80
19039;DHT22;9652;49.014;12.052;2023-06-14T08:13:12;23.80;42.80
19039;DHT22;9652;49.014;12.052;2023-06-14T08:15:39;23.80;42.90
19039;DHT22;9652;49.014;12.052;2023-06-14T08:18:06;23.80;42.70
19039;DHT22;9652;49.014;12.052;2023-06-14T08:20:33;23.90;42.50
19039;DHT22;9652;49.014;12.052;2023-06-14T08:23:01;24.00;42.80
19039;DHT22;9652;49.014;12.052;2023-06-14T08:25:29;24.00;42.10
19039;DHT22;9652;49.014;12.052;2023-06-14T08:27:58;24.20;42.20
19039;DHT22;9652;49.014;12.052;2023-06-14T08:30:26;24.20;41.60
19039;DHT22;9652;49.014;12.052;2023-06-14T08:32:53;24.40;41.70
19039;DHT22;9652;49.014;12.052;2023-06-14T08:35:21;24.40;41.60
19039;DHT22;9652;49.014;12.052;2023-06-14T08:37:49;24.60;41.40
19039;DHT22;9652;49.014;12.052;2023-06-14T08:40:20;24.70;41.30
19039;DHT22;9652;49.014;12.052;2023-06-14T08:42:51;24.80;40.90
19039;DHT22;9652;49.014;12.052;2023-06-14T08:45:21;25.00;40.60
19039;DHT22;9652;49.014;12.052;2023-06-14T08:47:50;25.10;40.40
19039;DHT22;9652;49.014;12.052;2023-06-14T08:50:20;25.10;40.30
19039;DHT22;9652;49.014;12.052;2023-06-14T08:52:53;25.20;40.00
19039;DHT22;9652;49.014;12.052;2023-06-14T08:55:23;25.30;40.00
19039;DHT22;9652;49.014;12.052;2023-06-14T08:57:54;25.30;39.90
19039;DHT22;9652;49.014;12.052;2023-06-14T09:00:25;25.40;39.70
19039;DHT22;9652;49.014;12.052;2023-06-14T09:02:53;25.50;39.60
19039;DHT22;9652;49.014;12.052;2023-06-14T09:05:23;25.50;39.50
19039;DHT22;9652;49.014;12.052;2023-06-14T09:07:51;25.60;39.50
19039;DHT22;9652;49.014;12.052;2023-06-14T09:10:21;25.70;39.60
19039;DHT22;9652;49.014;12.052;2023-06-14T09:12:48;25.80;39.50
19039;DHT22;9652;49.014;12.052;2023-06-14T09:15:16;26.00;39.60
19039;DHT22;9652;49.014;12.052;2023-06-14T09:17:45;26.10;39.50
19039;DHT22;9652;49.014;12.052;2023-06-14T09:20:12;26.30;39.40
19039;DHT22;9652;49.014;12.052;2023-06-14T09:22:43;26.50;39.00
19039;DHT22;9652;49.014;12.052;2023-06-14T09:25:10;26.60;38.90
19039;DHT22;9652;49.014;12.052;2023-06-14T09:27:41;26.80;38.70
19039;DHT22;9652;49.014;12.052;2023-06-14T09:30:09;26.90;38.40
19039;DHT22;9652;49.014;12.052;2023-06-14T09:32:37;26.90;37.90
19039;DHT22;9652;49.014;12.052;2023-06-14T09:35:08;27.00;37.50
19039;DHT22;9652;49.014;12.052;2023-06-14T09:37:36;27.00;37.20
19039;DHT22;9652;49.014;12.052;2023-06-14T09:40:05;26.90;37.30
19039;DHT22;9652;49.014;12.052;2023-06-14T09:42:33;26.90;37.50
19039;DHT22;9652;49.014;12.052;2023-06-14T09:45:02;27.00;37.60
19039;DHT22;9652;49.014;12.052;2023-06-14T09:47:30;27.00;37.40
19039;DHT22;9652;49.014;12.052;2023-06-14T09:49:57;27.10;37.40
19039;DHT22;9652;49.014;12.052;2023-06-14T09:52:27;27.20;37.30
19039;DHT22;9652;49.014;12.052;2023-06-14T09:54:56;27.20;37.10
19039;DHT22;9652;49.014;12.052;2023-06-14T09:57:26;27.30;37.20
19039;DHT22;9652;49.014;12.052;2023-06-14T09:59:59;27.40;37.10
19039;DHT22;9652;49.014;12.052;2023-06-14T10:02:38;27.50;37.00
19039;DHT22;9652;49.014;12.052;2023-06-14T10:05:15;27.60;36.90
19039;DHT22;9652;49.014;12.052;2023-06-14T10:07:50;27.70;36.70
19039;DHT22;9652;49.014;12.052;2023-06-14T10:10:19;27.80;36.60
19039;DHT22;9652;49.014;12.052;2023-06-14T10:12:47;28.00;36.80
19039;DHT22;9652;49.014;12.052;2023-06-14T10:15:19;28.10;36.50
19039;DHT22;9652;49.014;12.052;2023-06-14T10:17:57;28.20;36.10
19039;DHT22;9652;49.014;12.052;2023-06-14T10:20:30;28.40;36.10
19039;DHT22;9652;49.014;12.052;2023-06-14T10:23:08;28.50;36.30
19039;DHT22;9652;49.014;12.052;2023-06-14T10:25:40;28.60;35.80
19039;DHT22;9652;49.014;12.052;2023-06-14T10:28:16;28.80;36.00
19039;DHT22;9652;49.014;12.052;2023-06-14T10:31:05;28.90;35.20
19039;DHT22;9652;49.014;12.052;2023-06-14T10:33:34;29.00;34.60
19039;DHT22;9652;49.014;12.052;2023-06-14T10:36:10;29.00;35.10
19039;DHT22;9652;49.014;12.052;2023-06-14T10:39:04;29.00;34.40
19039;DHT22;9652;49.014;12.052;2023-06-14T10:41:35;29.00;34.10
19039;DHT22;9652;49.014;12.052;2023-06-14T10:44:38;29.00;34.10
19039;DHT22;9652;49.014;12.052;2023-06-14T10:47:08;28.90;33.40
19039;DHT22;9652;49.014;12.052;2023-06-14T10:49:42;28.90;34.00
19039;DHT22;9652;49.014;12.052;2023-06-14T10:52:12;28.80;33.70
19039;DHT22;9652;49.014;12.052;2023-06-14T10:55:12;28.80;33.90
19039;DHT22;9652;49.014;12.052;2023-06-14T10:57:42;28.80;33.40
19039;DHT22;9652;49.014;12.052;2023-06-14T11:00:12;28.70;33.60
19039;DHT22;9652;49.014;12.052;2023-06-14T11:03:16;28.70;33.50
19039;DHT22;9652;49.014;12.052;2023-06-14T11:06:15;28.70;33.30
19039;DHT22;9652;49.014;12.052;2023-06-14T11:09:27;28.80;33.80
19039;DHT22;9652;49.014;12.052;2023-06-14T11:12:18;28.80;33.10
19039;DHT22;9652;49.014;12.052;2023-06-14T11:14:46;28.80;33.50
19039;DHT22;9652;49.014;12.052;2023-06-14T11:17:15;28.80;33.30
19039;DHT22;9652;49.014;12.052;2023-06-14T11:19:42;28.90;33.50
19039;DHT22;9652;49.014;12.052;2023-06-14T11:22:10;29.00;33.50
19039;DHT22;9652;49.014;12.052;2023-06-14T11:24:37;29.20;33.70
19039;DHT22;9652;49.014;12.052;2023-06-14T11:27:05;29.30;33.70
19039;DHT22;9652;49.014;12.052;2023-06-14T11:29:35;29.40;33.50
19039;DHT22;9652;49.014;12.052;2023-06-14T11:32:03;29.70;33.20
19039;DHT22;9652;49.014;12.052;2023-06-14T11:34:37;29.80;33.00
19039;DHT22;9652;49.014;12.052;2023-06-14T11:37:05;30.00;33.00
19039;DHT22;9652;49.014;12.052;2023-06-14T11:39:32;30.20;32.80
19039;DHT22;9652;49.014;12.052;2023-06-14T11:41:59;30.40;32.50
19039;DHT22;9652;49.014;12.052;2023-06-14T11:44:29;30.60;32.40
19039;DHT22;9652;49.014;12.052;2023-06-14T11:46:57;30.80;32.30
19039;DHT22;9652;49.014;12.052;2023-06-14T11:49:24;30.90;31.90
19039;DHT22;9652;49.014;12.052;2023-06-14T11:51:53;30.90;31.60
19039;DHT22;9652;49.014;12.052;2023-06-14T11:54:20;30.90;31.60
19039;DHT22;9652;49.014;12.052;2023-06-14T11:56:48;30.80;31.30
19039;DHT22;9652;49.014;12.052;2023-06-14T11:59:15;30.80;31.00
19039;DHT22;9652;49.014;12.052;2023-06-14T12:01:43;30.60;30.80
19039;DHT22;9652;49.014;12.052;2023-06-14T12:04:12;30.30;30.60
19039;DHT22;9652;49.014;12.052;2023-06-14T12:06:39;30.10;30.70
19039;DHT22;9652;49.014;12.052;2023-06-14T12:09:07;29.90;30.80
19039;DHT22;9652;49.014;12.052;2023-06-14T12:11:38;29.60;30.90
19039;DHT22;9652;49.014;12.052;2023-06-14T12:14:06;29.40;31.30
19039;DHT22;9652;49.014;12.052;2023-06-14T12:16:37;29.30;31.50
19039;DHT22;9652;49.014;12.052;2023-06-14T12:19:12;29.10;31.60
19039;DHT22;9652;49.014;12.052;2023-06-14T12:21:42;29.10;31.90
19039;DHT22;9652;49.014;12.052;2023-06-14T12:24:12;29.10;32.10
19039;DHT22;9652;49.014;12.052;2023-06-14T12:26:39;29.20;32.10
19039;DHT22;9652;49.014;12.052;2023-06-14T12:29:08;29.20;32.10
19039;DHT22;9652;49.014;12.052;2023-06-14T12:31:35;29.20;32.00
19039;DHT22;9652;49.014;12.052;2023-06-14T12:34:03;29.20;32.00
19039;DHT22;9652;49.014;12.052;2023-06-14T12:36:31;29.30;32.00
19039;DHT22;9652;49.014;12.052;2023-06-14T12:38:59;29.30;32.10
19039;DHT22;9652;49.014;12.052;2023-06-14T12:41:26;29.30;32.10
19039;DHT22;9652;49.014;12.052;2023-06-14T12:43:53;29.40;32.10
19039;DHT22;9652;49.014;12.052;2023-06-14T12:46:20;29.40;32.00
19039;DHT22;9652;49.014;12.052;2023-06-14T12:48:47;29.40;31.90
19039;DHT22;9652;49.014;12.052;2023-06-14T12:51:14;29.40;31.80
19039;DHT22;9652;49.014;12.052;2023-06-14T12:53:43;29.40;31.70
19039;DHT22;9652;49.014;12.052;2023-06-14T12:56:10;29.40;31.60
19039;DHT22;9652;49.014;12.052;2023-06-14T12:58:37;29.40;31.60
19039;DHT22;9652;49.014;12.052;2023-06-14T13:01:04;29.40;31.60
19039;DHT22;9652;49.014;12.052;2023-06-14T13:03:31;29.40;31.40
19039;DHT22;9652;49.014;12.052;2023-06-14T13:06:00;29.40;31.30
19039;DHT22;9652;49.014;12.052;2023-06-14T13:08:27;29.50;31.50
19039;DHT22;9652;49.014;12.052;2023-06-14T13:10:55;29.50;31.60
19039;DHT22;9652;49.014;12.052;2023-06-14T13:13:23;29.60;31.40
19039;DHT22;9652;49.014;12.052;2023-06-14T13:15:50;29.60;31.30
19039;DHT22;9652;49.014;12.052;2023-06-14T13:18:17;29.60;31.10
19039;DHT22;9652;49.014;12.052;2023-06-14T13:20:46;29.60;31.20
19039;DHT22;9652;49.014;12.052;2023-06-14T13:23:15;29.70;31.30
19039;DHT22;9652;49.014;12.052;2023-06-14T13:25:42;29.70;31.40
19039;DHT22;9652;49.014;12.052;2023-06-14T13:28:11;29.80;31.40
19039;DHT22;9652;49.014;12.052;2023-06-14T13:30:38;29.90;31.40
19039;DHT22;9652;49.014;12.052;2023-06-14T13:33:05;30.00;31.40
19039;DHT22;9652;49.014;12.052;2023-06-14T13:35:32;30.20;31.20
19039;DHT22;9652;49.014;12.052;2023-06-14T13:38:00;30.30;31.00
19039;DHT22;9652;49.014;12.052;2023-06-14T13:40:27;30.30;30.70
19039;DHT22;9652;49.014;12.052;2023-06-14T13:42:54;30.30;30.40
19039;DHT22;9652;49.014;12.052;2023-06-14T13:45:23;30.30;30.30
19039;DHT22;9652;49.014;12.052;2023-06-14T13:47:50;30.30;30.10
19039;DHT22;9652;49.014;12.052;2023-06-14T13:50:17;30.30;30.20
19039;DHT22;9652;49.014;12.052;2023-06-14T13:52:44;30.30;30.30
19039;DHT22;9652;49.014;12.052;2023-06-14T13:55:11;30.30;30.50
19039;DHT22;9652;49.014;12.052;2023-06-14T13:57:39;30.40;30.40
19039;DHT22;9652;49.014;12.052;2023-06-14T14:00:07;30.40;30.10
19039;DHT22;9652;49.014;12.052;2023-06-14T14:02:39;30.50;30.90
19039;DHT22;9652;49.014;12.052;2023-06-14T14:05:08;30.70;30.90
19039;DHT22;9652;49.014;12.052;2023-06-14T14:07:35;31.00;31.50
19039;DHT22;9652;49.014;12.052;2023-06-14T14:10:04;31.50;31.70
19039;DHT22;9652;49.014;12.052;2023-06-14T14:12:32;32.00;31.60
19039;DHT22;9652;49.014;12.052;2023-06-14T14:14:59;32.50;31.00
19039;DHT22;9652;49.014;12.052;2023-06-14T14:17:26;33.00;30.20
19039;DHT22;9652;49.014;12.052;2023-06-14T14:19:55;33.30;29.50
19039;DHT22;9652;49.014;12.052;2023-06-14T14:22:22;33.30;28.70
19039;DHT22;9652;49.014;12.052;2023-06-14T14:24:49;33.30;28.40
19039;DHT22;9652;49.014;12.052;2023-06-14T14:27:16;33.10;28.20
19039;DHT22;9652;49.014;12.052;2023-06-14T14:29:43;32.90;28.10
19039;DHT22;9652;49.014;12.052;2023-06-14T14:32:10;32.60;28.00
19039;DHT22;9652;49.014;12.052;2023-06-14T14:34:39;32.30;28.10
19039;DHT22;9652;49.014;12.052;2023-06-14T14:37:08;32.10;28.20
19039;DHT22;9652;49.014;12.052;2023-06-14T14:39:37;31.80;28.30
19039;DHT22;9652;49.014;12.052;2023-06-14T14:42:04;31.60;28.40
19039;DHT22;9652;49.014;12.052;2023-06-14T14:44:33;31.40;28.50
19039;DHT22;9652;49.014;12.052;2023-06-14T14:47:01;31.20;28.50
19039;DHT22;9652;49.014;12.052;2023-06-14T14:49:28;31.10;28.60
19039;DHT22;9652;49.014;12.052;2023-06-14T14:51:55;30.90;28.60
19039;DHT22;9652;49.014;12.052;2023-06-14T14:54:24;30.80;28.80
19039;DHT22;9652;49.014;12.052;2023-06-14T14:56:51;30.60;28.80
19039;DHT22;9652;49.014;12.052;2023-06-14T14:59:18;30.60;28.90
19039;DHT22;9652;49.014;12.052;2023-06-14T15:01:47;30.50;29.10
19039;DHT22;9652;49.014;12.052;2023-06-14T15:04:14;30.40;29.20
19039;DHT22;9652;49.014;12.052;2023-06-14T15:06:41;30.40;29.30
19039;DHT22;9652;49.014;12.052;2023-06-14T15:09:09;30.40;29.30
19039;DHT22;9652;49.014;12.052;2023-06-14T15:11:37;30.40;29.20
19039;DHT22;9652;49.014;12.052;2023-06-14T15:14:04;30.50;29.20
19039;DHT22;9652;49.014;12.052;2023-06-14T15:16:31;30.40;29.20
19039;DHT22;9652;49.014;12.052;2023-06-14T15:18:58;30.40;29.30
19039;DHT22;9652;49.014;12.052;2023-06-14T15:21:25;30.30;29.30
19039;DHT22;9652;49.014;12.052;2023-06-14T15:23:52;30.10;29.30
19039;DHT22;9652;49.014;12.052;2023-06-14T15:26:19;30.00;29.40
19039;DHT22;9652;49.014;12.052;2023-06-14T15:28:50;29.90;29.50
19039;DHT22;9652;49.014;12.052;2023-06-14T15:31:17;29.80;29.60
19039;DHT22;9652;49.014;12.052;2023-06-14T15:33:45;29.80;29.80
19039;DHT22;9652;49.014;12.052;2023-06-14T15:36:12;29.70;29.80
19039;DHT22;9652;49.014;12.052;2023-06-14T15:38:39;29.70;29.80
19039;DHT22;9652;49.014;12.052;2023-06-14T15:41:06;29.80;29.90